Zim Pacific — A8OZ4 — position and weather

sailwx.info

Track history (hours):
 
Tides and Currents Weather Stations Pressure Air Temp Water Temp Dewpoint Dewpoint Depression Visibility Wind Speed Wind Dir Waves Ship Positions

Zim Pacific

Last reported at 2014-Sep-23 01:33 UTC. Time now 2014-Sep-23 02:22 UTC.
Position N 36°51' E 024°04'.

Length 254 m; draft 11.8 m.

Type: Ship. MMSI: 636016512.

Date/timePositionNaut miles runAvg speedWind from/ knotsBaromVisibWave heightAir tempDewpointWater temp
2014-Sep-23 01:33N 36°51' E 024°04'1515.2
2014-Sep-23 00:33N 37°05' E 023°58'1515.2
2014-Sep-22 23:33N 37°19' E 023°53'3 2.5
2014-Sep-22 22:33N 37°22' E 023°52'4 1.7
2014-Sep-22 20:16N 37°25' E 023°49'1115.3
2014-Sep-22 19:32N 37°36' E 023°44'1515.0
2014-Sep-22 18:33N 37°49' E 023°37'8 7.8
2014-Sep-22 17:31N 37°57' E 023°36'0 0.0
2014-Sep-22 16:31N 37°57' E 023°36'0 0.0
2014-Sep-22 15:32N 37°57' E 023°36'0 0.0
2014-Sep-22 14:32N 37°57' E 023°36'0 0.0
2014-Sep-22 13:31N 37°57' E 023°36'0 0.0
2014-Sep-22 12:31N 37°57' E 023°36'0 0.0
2014-Sep-22 11:33N 37°57' E 023°36'0 0.0
2014-Sep-22 10:31N 37°57' E 023°36'0 0.0
2014-Sep-22 09:31N 37°57' E 023°36'0 0.0
2014-Sep-22 08:33N 37°57' E 023°36'0 0.0
2014-Sep-22 07:32N 37°57' E 023°36'0 0.0
2014-Sep-22 06:31N 37°57' E 023°36'0 0.0
2014-Sep-22 05:31N 37°57' E 023°36'0 0.0
2014-Sep-22 04:33N 37°57' E 023°36'0 0.0
2014-Sep-22 03:32N 37°57' E 023°36'0 0.0
2014-Sep-22 02:32N 37°57' E 023°36'0 0.0
2014-Sep-22 01:32N 37°57' E 023°36'0 0.0
2014-Sep-22 00:31N 37°57' E 023°36'0 0.0
2014-Sep-21 23:33N 37°57' E 023°36'0 0.0
2014-Sep-21 22:33N 37°57' E 023°36'0 0.0
2014-Sep-21 21:32N 37°57' E 023°36'0 0.0
2014-Sep-21 20:32N 37°57' E 023°36'0 0.0
2014-Sep-21 19:32N 37°57' E 023°36'0 0.0
2014-Sep-21 18:31N 37°57' E 023°36'2 1.6
2014-Sep-21 17:34N 37°56' E 023°36'4 4.0
2014-Sep-21 16:33N 37°52' E 023°39'1111.3
2014-Sep-21 15:33N 37°42' E 023°45'1515.0
2014-Sep-21 14:33N 37°28' E 023°51'3014.5
2014-Sep-21 12:30N 36°59' E 024°02'1414.7
2014-Sep-21 11:33N 36°46' E 024°06'1514.7
2014-Sep-21 10:33N 36°34' E 024°17'1514.5
2014-Sep-21 09:33N 36°26' E 024°32'1414.3
2014-Sep-21 08:33N 36°18' E 024°47'1414.1
2014-Sep-21 07:33N 36°11' E 025°02'1514.7
2014-Sep-21 06:33N 36°03' E 025°18'1414.7
2014-Sep-21 05:33N 35°55' E 025°33'1515.0
2014-Sep-21 04:33N 35°47' E 025°48'  
2014-Sep-17 15:31N 31°50' E 034°39'0 0.0
2014-Sep-17 14:27N 31°50' E 034°39'0 0.1
2014-Sep-17 13:33N 31°50' E 034°39'0 0.0
2014-Sep-17 12:23N 31°50' E 034°39'7 0.6
2014-Sep-17 01:30N 31°52' E 034°31'2913.0
2014-Sep-16 23:18N 32°21' E 034°30'1114.5
2014-Sep-16 22:33N 32°31' E 034°31'1514.4
2014-Sep-16 21:33N 32°46' E 034°32'7814.9
2014-Sep-16 16:18N 34°04' E 034°37'4114.7
2014-Sep-16 13:32N 34°44' E 034°39'39 1.1
2014-Sep-15 02:17N 34°05' E 034°36'1114.9
2014-Sep-15 01:33N 33°55' E 034°34'1414.5
2014-Sep-15 00:34N 33°40' E 034°33'2014.2
2014-Sep-14 23:07N 33°20' E 034°32'33 1.7
2014-Sep-14 03:12N 32°54' E 034°56'3 1.4
2014-Sep-14 01:18N 32°53' E 034°53'  
Track history (hours):
 
Tides and Currents Weather Stations Pressure Air Temp Water Temp Dewpoint Dewpoint Depression Visibility Wind Speed Wind Dir Waves Ship Positions

Zim Pacific

Last reported at 2014-Sep-23 01:33 UTC. Time now 2014-Sep-23 02:22 UTC.
Position N 36°51' E 024°04'.

Length 254 m; draft 11.8 m.

Type: Ship. MMSI: 636016512.

Date/timePositionNaut miles runAvg speedWind from/ knotsBaromVisibWave heightAir tempDewpointWater temp
2014-Sep-23 01:33N 36°51' E 024°04'1515.2
2014-Sep-23 00:33N 37°05' E 023°58'1515.2
2014-Sep-22 23:33N 37°19' E 023°53'3 2.5
2014-Sep-22 22:33N 37°22' E 023°52'4 1.7
2014-Sep-22 20:16N 37°25' E 023°49'1115.3
2014-Sep-22 19:32N 37°36' E 023°44'1515.0
2014-Sep-22 18:33N 37°49' E 023°37'8 7.8
2014-Sep-22 17:31N 37°57' E 023°36'0 0.0
2014-Sep-22 16:31N 37°57' E 023°36'0 0.0
2014-Sep-22 15:32N 37°57' E 023°36'0 0.0
2014-Sep-22 14:32N 37°57' E 023°36'0 0.0
2014-Sep-22 13:31N 37°57' E 023°36'0 0.0
2014-Sep-22 12:31N 37°57' E 023°36'0 0.0
2014-Sep-22 11:33N 37°57' E 023°36'0 0.0
2014-Sep-22 10:31N 37°57' E 023°36'0 0.0
2014-Sep-22 09:31N 37°57' E 023°36'0 0.0
2014-Sep-22 08:33N 37°57' E 023°36'0 0.0
2014-Sep-22 07:32N 37°57' E 023°36'0 0.0
2014-Sep-22 06:31N 37°57' E 023°36'0 0.0
2014-Sep-22 05:31N 37°57' E 023°36'0 0.0
2014-Sep-22 04:33N 37°57' E 023°36'0 0.0
2014-Sep-22 03:32N 37°57' E 023°36'0 0.0
2014-Sep-22 02:32N 37°57' E 023°36'0 0.0
2014-Sep-22 01:32N 37°57' E 023°36'0 0.0
2014-Sep-22 00:31N 37°57' E 023°36'0 0.0
2014-Sep-21 23:33N 37°57' E 023°36'0 0.0
2014-Sep-21 22:33N 37°57' E 023°36'0 0.0
2014-Sep-21 21:32N 37°57' E 023°36'0 0.0
2014-Sep-21 20:32N 37°57' E 023°36'0 0.0
2014-Sep-21 19:32N 37°57' E 023°36'0 0.0
2014-Sep-21 18:31N 37°57' E 023°36'2 1.6
2014-Sep-21 17:34N 37°56' E 023°36'4 4.0
2014-Sep-21 16:33N 37°52' E 023°39'1111.3
2014-Sep-21 15:33N 37°42' E 023°45'1515.0
2014-Sep-21 14:33N 37°28' E 023°51'3014.5
2014-Sep-21 12:30N 36°59' E 024°02'1414.7
2014-Sep-21 11:33N 36°46' E 024°06'1514.7
2014-Sep-21 10:33N 36°34' E 024°17'1514.5
2014-Sep-21 09:33N 36°26' E 024°32'1414.3
2014-Sep-21 08:33N 36°18' E 024°47'1414.1
2014-Sep-21 07:33N 36°11' E 025°02'1514.7
2014-Sep-21 06:33N 36°03' E 025°18'1414.7
2014-Sep-21 05:33N 35°55' E 025°33'1515.0
2014-Sep-21 04:33N 35°47' E 025°48'  
2014-Sep-17 15:31N 31°50' E 034°39'0 0.0
2014-Sep-17 14:27N 31°50' E 034°39'0 0.1
2014-Sep-17 13:33N 31°50' E 034°39'0 0.0
2014-Sep-17 12:23N 31°50' E 034°39'7 0.6
2014-Sep-17 01:30N 31°52' E 034°31'2913.0
2014-Sep-16 23:18N 32°21' E 034°30'1114.5
2014-Sep-16 22:33N 32°31' E 034°31'1514.4
2014-Sep-16 21:33N 32°46' E 034°32'7814.9
2014-Sep-16 16:18N 34°04' E 034°37'4114.7
2014-Sep-16 13:32N 34°44' E 034°39'39 1.1
2014-Sep-15 02:17N 34°05' E 034°36'1114.9
2014-Sep-15 01:33N 33°55' E 034°34'1414.5
2014-Sep-15 00:34N 33°40' E 034°33'2014.2
2014-Sep-14 23:07N 33°20' E 034°32'33 1.7
2014-Sep-14 03:12N 32°54' E 034°56'3 1.4
2014-Sep-14 01:18N 32°53' E 034°53'  

Dump ship's entire track history